sensor_id;sensor_type;location;lat;lon;timestamp;temperature;humidity
65826;DHT22;52586;-43.152;172.732;2024-01-30T00:01:54;25.50;45.30
65826;DHT22;52586;-43.152;172.732;2024-01-30T00:04:24;25.60;45.30
65826;DHT22;52586;-43.152;172.732;2024-01-30T00:06:57;25.60;45.20
65826;DHT22;52586;-43.152;172.732;2024-01-30T00:09:28;25.60;45.20
65826;DHT22;52586;-43.152;172.732;2024-01-30T00:11:58;25.60;45.10
65826;DHT22;52586;-43.152;172.732;2024-01-30T00:14:29;25.60;45.20
65826;DHT22;52586;-43.152;172.732;2024-01-30T00:17:00;25.60;45.60
65826;DHT22;52586;-43.152;172.732;2024-01-30T00:19:31;25.70;45.10
65826;DHT22;52586;-43.152;172.732;2024-01-30T00:22:03;25.70;45.00
65826;DHT22;52586;-43.152;172.732;2024-01-30T00:24:35;25.70;45.20
65826;DHT22;52586;-43.152;172.732;2024-01-30T00:27:06;25.70;45.10
65826;DHT22;52586;-43.152;172.732;2024-01-30T00:29:36;25.70;45.00
65826;DHT22;52586;-43.152;172.732;2024-01-30T00:32:07;25.80;45.10
65826;DHT22;52586;-43.152;172.732;2024-01-30T00:34:38;25.80;45.10
65826;DHT22;52586;-43.152;172.732;2024-01-30T00:37:11;25.80;45.10
65826;DHT22;52586;-43.152;172.732;2024-01-30T00:39:42;25.80;45.10
65826;DHT22;52586;-43.152;172.732;2024-01-30T00:42:12;25.80;44.90
65826;DHT22;52586;-43.152;172.732;2024-01-30T00:44:43;25.80;44.90
65826;DHT22;52586;-43.152;172.732;2024-01-30T00:47:14;25.80;44.90
65826;DHT22;52586;-43.152;172.732;2024-01-30T00:49:45;25.80;44.90
65826;DHT22;52586;-43.152;172.732;2024-01-30T00:52:17;25.80;45.00
65826;DHT22;52586;-43.152;172.732;2024-01-30T00:54:48;25.80;44.90
65826;DHT22;52586;-43.152;172.732;2024-01-30T00:57:19;25.80;44.90
65826;DHT22;52586;-43.152;172.732;2024-01-30T00:59:49;25.90;45.00
65826;DHT22;52586;-43.152;172.732;2024-01-30T01:02:20;25.90;45.00
65826;DHT22;52586;-43.152;172.732;2024-01-30T01:04:51;25.90;44.90
65826;DHT22;52586;-43.152;172.732;2024-01-30T01:07:24;25.90;44.80
65826;DHT22;52586;-43.152;172.732;2024-01-30T01:09:54;25.90;44.80
65826;DHT22;52586;-43.152;172.732;2024-01-30T01:12:25;25.90;44.80
65826;DHT22;52586;-43.152;172.732;2024-01-30T01:14:56;25.90;44.80
65826;DHT22;52586;-43.152;172.732;2024-01-30T01:17:26;25.90;44.80
65826;DHT22;52586;-43.152;172.732;2024-01-30T01:19:57;25.90;44.70
65826;DHT22;52586;-43.152;172.732;2024-01-30T01:22:30;25.90;44.70
65826;DHT22;52586;-43.152;172.732;2024-01-30T01:25:01;26.00;44.80
65826;DHT22;52586;-43.152;172.732;2024-01-30T01:27:34;26.00;44.80
65826;DHT22;52586;-43.152;172.732;2024-01-30T01:30:09;25.90;44.80
65826;DHT22;52586;-43.152;172.732;2024-01-30T01:32:45;26.00;44.80
65826;DHT22;52586;-43.152;172.732;2024-01-30T01:35:23;26.00;44.70
65826;DHT22;52586;-43.152;172.732;2024-01-30T01:37:56;26.00;44.80
65826;DHT22;52586;-43.152;172.732;2024-01-30T01:40:28;26.00;44.90
65826;DHT22;52586;-43.152;172.732;2024-01-30T01:42:58;26.00;45.00
65826;DHT22;52586;-43.152;172.732;2024-01-30T01:45:29;26.00;44.90
65826;DHT22;52586;-43.152;172.732;2024-01-30T01:48:00;26.00;45.00
65826;DHT22;52586;-43.152;172.732;2024-01-30T01:50:31;26.00;45.00
65826;DHT22;52586;-43.152;172.732;2024-01-30T01:53:04;26.10;45.10
65826;DHT22;52586;-43.152;172.732;2024-01-30T01:55:35;26.10;45.10
65826;DHT22;52586;-43.152;172.732;2024-01-30T01:58:06;26.10;45.70
65826;DHT22;52586;-43.152;172.732;2024-01-30T02:00:38;26.10;45.10
65826;DHT22;52586;-43.152;172.732;2024-01-30T02:03:11;26.10;45.10
65826;DHT22;52586;-43.152;172.732;2024-01-30T02:05:44;26.10;45.10
65826;DHT22;52586;-43.152;172.732;2024-01-30T02:08:18;26.10;45.10
65826;DHT22;52586;-43.152;172.732;2024-01-30T02:10:48;26.10;45.10
65826;DHT22;52586;-43.152;172.732;2024-01-30T02:13:19;26.20;45.00
65826;DHT22;52586;-43.152;172.732;2024-01-30T02:15:51;26.10;44.90
65826;DHT22;52586;-43.152;172.732;2024-01-30T02:18:22;26.10;44.90
65826;DHT22;52586;-43.152;172.732;2024-01-30T02:20:55;26.10;44.90
65826;DHT22;52586;-43.152;172.732;2024-01-30T02:23:31;26.20;44.80
65826;DHT22;52586;-43.152;172.732;2024-01-30T02:26:04;26.20;44.90
65826;DHT22;52586;-43.152;172.732;2024-01-30T02:28:34;26.20;44.80
65826;DHT22;52586;-43.152;172.732;2024-01-30T02:31:05;26.20;44.80
65826;DHT22;52586;-43.152;172.732;2024-01-30T02:33:36;26.20;44.90
65826;DHT22;52586;-43.152;172.732;2024-01-30T02:36:07;26.20;44.90
65826;DHT22;52586;-43.152;172.732;2024-01-30T02:38:39;26.20;44.80
65826;DHT22;52586;-43.152;172.732;2024-01-30T02:41:10;26.20;44.80
65826;DHT22;52586;-43.152;172.732;2024-01-30T02:43:41;26.20;44.80
65826;DHT22;52586;-43.152;172.732;2024-01-30T02:46:11;26.20;44.70
65826;DHT22;52586;-43.152;172.732;2024-01-30T02:48:42;26.20;44.70
65826;DHT22;52586;-43.152;172.732;2024-01-30T02:51:13;26.20;44.80
65826;DHT22;52586;-43.152;172.732;2024-01-30T02:53:45;26.20;45.30
65826;DHT22;52586;-43.152;172.732;2024-01-30T02:56:16;26.30;44.80
65826;DHT22;52586;-43.152;172.732;2024-01-30T02:58:47;26.30;44.80
65826;DHT22;52586;-43.152;172.732;2024-01-30T03:01:17;26.30;44.70
65826;DHT22;52586;-43.152;172.732;2024-01-30T03:03:48;26.30;44.70
65826;DHT22;52586;-43.152;172.732;2024-01-30T03:06:19;26.40;44.80
65826;DHT22;52586;-43.152;172.732;2024-01-30T03:08:52;26.40;44.80
65826;DHT22;52586;-43.152;172.732;2024-01-30T03:11:23;26.40;44.70
65826;DHT22;52586;-43.152;172.732;2024-01-30T03:13:53;26.40;44.70
65826;DHT22;52586;-43.152;172.732;2024-01-30T03:16:24;26.50;44.70
65826;DHT22;52586;-43.152;172.732;2024-01-30T03:18:55;26.50;44.70
65826;DHT22;52586;-43.152;172.732;2024-01-30T03:21:26;26.50;44.70
65826;DHT22;52586;-43.152;172.732;2024-01-30T03:23:58;26.50;44.60
65826;DHT22;52586;-43.152;172.732;2024-01-30T03:26:29;26.50;44.60
65826;DHT22;52586;-43.152;172.732;2024-01-30T03:29:00;26.50;45.20
65826;DHT22;52586;-43.152;172.732;2024-01-30T03:31:35;26.50;44.60
65826;DHT22;52586;-43.152;172.732;2024-01-30T03:34:08;26.60;44.60
65826;DHT22;52586;-43.152;172.732;2024-01-30T03:36:39;26.60;44.70
65826;DHT22;52586;-43.152;172.732;2024-01-30T03:39:11;26.60;44.60
65826;DHT22;52586;-43.152;172.732;2024-01-30T03:41:44;26.70;44.60
65826;DHT22;52586;-43.152;172.732;2024-01-30T03:44:14;26.70;44.60
65826;DHT22;52586;-43.152;172.732;2024-01-30T03:46:45;26.70;44.50
65826;DHT22;52586;-43.152;172.732;2024-01-30T03:49:16;26.80;44.50
65826;DHT22;52586;-43.152;172.732;2024-01-30T03:51:47;26.80;44.50
65826;DHT22;52586;-43.152;172.732;2024-01-30T03:54:19;26.90;44.60
65826;DHT22;52586;-43.152;172.732;2024-01-30T03:56:50;26.80;44.40
65826;DHT22;52586;-43.152;172.732;2024-01-30T03:59:21;26.90;44.40
65826;DHT22;52586;-43.152;172.732;2024-01-30T04:01:52;26.90;44.40
65826;DHT22;52586;-43.152;172.732;2024-01-30T04:04:23;27.00;44.40
65826;DHT22;52586;-43.152;172.732;2024-01-30T04:06:53;27.00;44.30
65826;DHT22;52586;-43.152;172.732;2024-01-30T04:09:26;27.00;44.30
65826;DHT22;52586;-43.152;172.732;2024-01-30T04:11:57;27.00;44.30
65826;DHT22;52586;-43.152;172.732;2024-01-30T04:14:27;27.00;44.20
65826;DHT22;52586;-43.152;172.732;2024-01-30T04:16:58;27.00;44.20
65826;DHT22;52586;-43.152;172.732;2024-01-30T04:19:29;27.00;44.20
65826;DHT22;52586;-43.152;172.732;2024-01-30T04:21:59;27.10;44.20
65826;DHT22;52586;-43.152;172.732;2024-01-30T04:24:32;27.10;44.20
65826;DHT22;52586;-43.152;172.732;2024-01-30T04:27:03;27.10;44.10
65826;DHT22;52586;-43.152;172.732;2024-01-30T04:29:34;27.10;44.10
65826;DHT22;52586;-43.152;172.732;2024-01-30T04:32:05;27.10;44.10
65826;DHT22;52586;-43.152;172.732;2024-01-30T04:34:36;27.20;44.10
65826;DHT22;52586;-43.152;172.732;2024-01-30T04:37:07;27.20;44.10
65826;DHT22;52586;-43.152;172.732;2024-01-30T04:39:39;27.30;44.10
65826;DHT22;52586;-43.152;172.732;2024-01-30T04:42:10;27.30;44.10
65826;DHT22;52586;-43.152;172.732;2024-01-30T04:44:41;27.30;44.00
65826;DHT22;52586;-43.152;172.732;2024-01-30T04:47:12;27.30;44.00
65826;DHT22;52586;-43.152;172.732;2024-01-30T04:49:42;27.40;44.00
65826;DHT22;52586;-43.152;172.732;2024-01-30T04:52:13;27.40;43.90
65826;DHT22;52586;-43.152;172.732;2024-01-30T04:54:46;27.40;43.90
65826;DHT22;52586;-43.152;172.732;2024-01-30T04:57:16;27.50;43.90
65826;DHT22;52586;-43.152;172.732;2024-01-30T04:59:47;27.40;43.80
65826;DHT22;52586;-43.152;172.732;2024-01-30T05:02:18;27.40;43.80
65826;DHT22;52586;-43.152;172.732;2024-01-30T05:04:49;27.50;43.80
65826;DHT22;52586;-43.152;172.732;2024-01-30T05:07:19;27.50;43.80
65826;DHT22;52586;-43.152;172.732;2024-01-30T05:09:52;27.50;43.80
65826;DHT22;52586;-43.152;172.732;2024-01-30T05:12:23;27.50;43.80
65826;DHT22;52586;-43.152;172.732;2024-01-30T05:14:53;27.50;43.80
65826;DHT22;52586;-43.152;172.732;2024-01-30T05:17:24;27.60;43.80
65826;DHT22;52586;-43.152;172.732;2024-01-30T05:19:55;27.60;43.80
65826;DHT22;52586;-43.152;172.732;2024-01-30T05:22:25;27.60;43.80
65826;DHT22;52586;-43.152;172.732;2024-01-30T05:24:58;27.60;43.70
65826;DHT22;52586;-43.152;172.732;2024-01-30T05:27:29;27.60;43.70
65826;DHT22;52586;-43.152;172.732;2024-01-30T05:30:00;27.60;43.60
65826;DHT22;52586;-43.152;172.732;2024-01-30T05:32:30;27.70;43.70
65826;DHT22;52586;-43.152;172.732;2024-01-30T05:35:01;27.70;43.70
65826;DHT22;52586;-43.152;172.732;2024-01-30T05:37:32;27.70;43.60
65826;DHT22;52586;-43.152;172.732;2024-01-30T05:40:05;27.70;43.60
65826;DHT22;52586;-43.152;172.732;2024-01-30T05:42:36;27.80;43.70
65826;DHT22;52586;-43.152;172.732;2024-01-30T05:45:07;27.80;43.60
65826;DHT22;52586;-43.152;172.732;2024-01-30T05:47:38;27.80;43.70
65826;DHT22;52586;-43.152;172.732;2024-01-30T05:50:09;27.80;43.70
65826;DHT22;52586;-43.152;172.732;2024-01-30T05:52:40;27.80;43.60
65826;DHT22;52586;-43.152;172.732;2024-01-30T05:55:12;27.80;43.50
65826;DHT22;52586;-43.152;172.732;2024-01-30T05:57:43;27.80;43.50
65826;DHT22;52586;-43.152;172.732;2024-01-30T06:00:15;27.80;43.50
65826;DHT22;52586;-43.152;172.732;2024-01-30T06:02:45;27.80;43.50
65826;DHT22;52586;-43.152;172.732;2024-01-30T06:05:16;27.80;43.50
65826;DHT22;52586;-43.152;172.732;2024-01-30T06:07:47;27.80;43.50
65826;DHT22;52586;-43.152;172.732;2024-01-30T06:10:19;27.90;43.50
65826;DHT22;52586;-43.152;172.732;2024-01-30T06:12:50;27.90;43.50
65826;DHT22;52586;-43.152;172.732;2024-01-30T06:15:21;27.80;43.40
65826;DHT22;52586;-43.152;172.732;2024-01-30T06:17:52;27.90;44.10
65826;DHT22;52586;-43.152;172.732;2024-01-30T06:20:22;27.80;43.40
65826;DHT22;52586;-43.152;172.732;2024-01-30T06:22:53;27.80;43.30
65826;DHT22;52586;-43.152;172.732;2024-01-30T06:25:26;27.90;43.40
65826;DHT22;52586;-43.152;172.732;2024-01-30T06:27:56;27.90;43.30
65826;DHT22;52586;-43.152;172.732;2024-01-30T06:30:31;27.90;43.30
65826;DHT22;52586;-43.152;172.732;2024-01-30T06:33:01;27.80;43.20
65826;DHT22;52586;-43.152;172.732;2024-01-30T06:35:32;27.80;43.20
65826;DHT22;52586;-43.152;172.732;2024-01-30T06:38:04;27.80;43.20
65826;DHT22;52586;-43.152;172.732;2024-01-30T06:40:36;27.80;43.20
65826;DHT22;52586;-43.152;172.732;2024-01-30T06:43:07;27.80;43.20
65826;DHT22;52586;-43.152;172.732;2024-01-30T06:45:39;27.80;43.30
65826;DHT22;52586;-43.152;172.732;2024-01-30T06:48:10;27.80;43.30
65826;DHT22;52586;-43.152;172.732;2024-01-30T06:50:40;27.80;43.30
65826;DHT22;52586;-43.152;172.732;2024-01-30T06:53:11;27.80;43.30
65826;DHT22;52586;-43.152;172.732;2024-01-30T06:55:44;27.80;43.30
65826;DHT22;52586;-43.152;172.732;2024-01-30T06:58:14;27.80;43.30
65826;DHT22;52586;-43.152;172.732;2024-01-30T07:00:45;27.80;43.30
65826;DHT22;52586;-43.152;172.732;2024-01-30T07:03:16;27.80;43.30
65826;DHT22;52586;-43.152;172.732;2024-01-30T07:05:47;27.80;43.30
65826;DHT22;52586;-43.152;172.732;2024-01-30T07:08:17;27.80;43.30
65826;DHT22;52586;-43.152;172.732;2024-01-30T07:10:50;27.80;43.30
65826;DHT22;52586;-43.152;172.732;2024-01-30T07:13:22;27.80;43.40
65826;DHT22;52586;-43.152;172.732;2024-01-30T07:15:53;27.80;43.30
65826;DHT22;52586;-43.152;172.732;2024-01-30T07:18:24;27.70;43.30
65826;DHT22;52586;-43.152;172.732;2024-01-30T07:20:55;27.80;43.30
65826;DHT22;52586;-43.152;172.732;2024-01-30T07:23:25;27.80;43.30
65826;DHT22;52586;-43.152;172.732;2024-01-30T07:25:59;27.70;43.40
65826;DHT22;52586;-43.152;172.732;2024-01-30T07:28:30;27.70;43.60
65826;DHT22;52586;-43.152;172.732;2024-01-30T07:31:00;27.70;43.70
65826;DHT22;52586;-43.152;172.732;2024-01-30T07:33:31;27.70;43.80
65826;DHT22;52586;-43.152;172.732;2024-01-30T07:36:02;27.70;43.70
65826;DHT22;52586;-43.152;172.732;2024-01-30T07:38:33;27.60;43.70
65826;DHT22;52586;-43.152;172.732;2024-01-30T07:41:06;27.60;43.80
65826;DHT22;52586;-43.152;172.732;2024-01-30T07:43:37;27.60;43.80
65826;DHT22;52586;-43.152;172.732;2024-01-30T07:46:08;27.60;43.80
65826;DHT22;52586;-43.152;172.732;2024-01-30T07:48:39;27.50;43.80
65826;DHT22;52586;-43.152;172.732;2024-01-30T07:51:09;27.60;43.90
65826;DHT22;52586;-43.152;172.732;2024-01-30T07:53:43;27.60;43.90
65826;DHT22;52586;-43.152;172.732;2024-01-30T07:56:16;27.50;43.80
65826;DHT22;52586;-43.152;172.732;2024-01-30T07:58:47;27.50;43.80
65826;DHT22;52586;-43.152;172.732;2024-01-30T08:01:18;27.50;43.80
65826;DHT22;52586;-43.152;172.732;2024-01-30T08:03:49;27.50;43.80
65826;DHT22;52586;-43.152;172.732;2024-01-30T08:06:19;27.40;43.80
65826;DHT22;52586;-43.152;172.732;2024-01-30T08:08:50;27.40;43.80
65826;DHT22;52586;-43.152;172.732;2024-01-30T08:11:23;27.40;43.80
65826;DHT22;52586;-43.152;172.732;2024-01-30T08:13:55;27.40;43.80
65826;DHT22;52586;-43.152;172.732;2024-01-30T08:16:25;27.40;43.80
65826;DHT22;52586;-43.152;172.732;2024-01-30T08:18:56;27.40;43.80
65826;DHT22;52586;-43.152;172.732;2024-01-30T08:21:27;27.40;43.70
65826;DHT22;52586;-43.152;172.732;2024-01-30T08:23:57;27.40;43.70
65826;DHT22;52586;-43.152;172.732;2024-01-30T08:26:30;27.30;43.70
65826;DHT22;52586;-43.152;172.732;2024-01-30T08:29:01;27.30;43.60
65826;DHT22;52586;-43.152;172.732;2024-01-30T08:31:32;27.30;43.60
65826;DHT22;52586;-43.152;172.732;2024-01-30T08:34:02;27.30;43.70
65826;DHT22;52586;-43.152;172.732;2024-01-30T08:36:33;27.20;43.60
65826;DHT22;52586;-43.152;172.732;2024-01-30T08:39:04;27.20;43.60
65826;DHT22;52586;-43.152;172.732;2024-01-30T08:41:37;27.30;43.70
65826;DHT22;52586;-43.152;172.732;2024-01-30T08:44:07;27.20;43.70
65826;DHT22;52586;-43.152;172.732;2024-01-30T08:46:38;27.20;43.60
65826;DHT22;52586;-43.152;172.732;2024-01-30T08:49:10;27.20;44.00
65826;DHT22;52586;-43.152;172.732;2024-01-30T08:51:40;27.10;44.10
65826;DHT22;52586;-43.152;172.732;2024-01-30T08:54:11;27.10;44.20
65826;DHT22;52586;-43.152;172.732;2024-01-30T08:56:44;27.10;44.20
65826;DHT22;52586;-43.152;172.732;2024-01-30T08:59:15;27.10;44.20
65826;DHT22;52586;-43.152;172.732;2024-01-30T09:01:45;27.10;44.20
65826;DHT22;52586;-43.152;172.732;2024-01-30T09:04:16;27.00;44.10
65826;DHT22;52586;-43.152;172.732;2024-01-30T09:06:47;27.00;44.10
65826;DHT22;52586;-43.152;172.732;2024-01-30T09:09:18;27.00;44.30
65826;DHT22;52586;-43.152;172.732;2024-01-30T09:11:51;27.00;44.10
65826;DHT22;52586;-43.152;172.732;2024-01-30T09:14:22;27.00;44.10
65826;DHT22;52586;-43.152;172.732;2024-01-30T09:16:52;27.00;44.10
65826;DHT22;52586;-43.152;172.732;2024-01-30T09:19:23;27.00;44.10
65826;DHT22;52586;-43.152;172.732;2024-01-30T09:21:54;26.90;44.10
65826;DHT22;52586;-43.152;172.732;2024-01-30T09:24:25;26.90;44.10
65826;DHT22;52586;-43.152;172.732;2024-01-30T09:26:58;27.00;44.10
65826;DHT22;52586;-43.152;172.732;2024-01-30T09:29:28;26.90;44.10
65826;DHT22;52586;-43.152;172.732;2024-01-30T09:32:00;26.90;44.10
65826;DHT22;52586;-43.152;172.732;2024-01-30T09:34:31;26.90;44.10
65826;DHT22;52586;-43.152;172.732;2024-01-30T09:37:02;26.80;44.00
65826;DHT22;52586;-43.152;172.732;2024-01-30T09:39:33;26.90;44.10
65826;DHT22;52586;-43.152;172.732;2024-01-30T09:42:09;26.90;44.10
65826;DHT22;52586;-43.152;172.732;2024-01-30T09:44:42;26.80;44.00
65826;DHT22;52586;-43.152;172.732;2024-01-30T09:47:13;26.80;44.00
65826;DHT22;52586;-43.152;172.732;2024-01-30T09:49:45;26.80;43.90
65826;DHT22;52586;-43.152;172.732;2024-01-30T09:52:17;26.80;43.90
65826;DHT22;52586;-43.152;172.732;2024-01-30T09:54:50;26.80;43.90
65826;DHT22;52586;-43.152;172.732;2024-01-30T09:57:24;26.80;43.90
65826;DHT22;52586;-43.152;172.732;2024-01-30T09:59:54;26.80;43.90
65826;DHT22;52586;-43.152;172.732;2024-01-30T10:02:25;26.70;43.80
65826;DHT22;52586;-43.152;172.732;2024-01-30T10:04:58;26.70;43.90
65826;DHT22;52586;-43.152;172.732;2024-01-30T10:07:30;26.70;43.80
65826;DHT22;52586;-43.152;172.732;2024-01-30T10:10:02;26.70;43.80
65826;DHT22;52586;-43.152;172.732;2024-01-30T10:12:34;26.70;43.80
65826;DHT22;52586;-43.152;172.732;2024-01-30T10:15:08;26.60;43.80
65826;DHT22;52586;-43.152;172.732;2024-01-30T10:17:39;26.60;44.30
65826;DHT22;52586;-43.152;172.732;2024-01-30T10:20:10;26.60;43.80
65826;DHT22;52586;-43.152;172.732;2024-01-30T10:22:41;26.60;43.80
65826;DHT22;52586;-43.152;172.732;2024-01-30T10:25:13;26.60;43.80
65826;DHT22;52586;-43.152;172.732;2024-01-30T10:27:46;26.50;43.70
65826;DHT22;52586;-43.152;172.732;2024-01-30T10:30:16;26.50;43.70
65826;DHT22;52586;-43.152;172.732;2024-01-30T10:32:47;26.50;43.70
65826;DHT22;52586;-43.152;172.732;2024-01-30T10:35:18;26.50;43.70
65826;DHT22;52586;-43.152;172.732;2024-01-30T10:37:49;26.50;43.70
65826;DHT22;52586;-43.152;172.732;2024-01-30T10:40:22;26.50;43.70
65826;DHT22;52586;-43.152;172.732;2024-01-30T10:43:01;26.50;43.70
65826;DHT22;52586;-43.152;172.732;2024-01-30T10:45:32;26.40;43.60
65826;DHT22;52586;-43.152;172.732;2024-01-30T10:48:06;26.40;43.60
65826;DHT22;52586;-43.152;172.732;2024-01-30T10:50:40;26.40;43.60
65826;DHT22;52586;-43.152;172.732;2024-01-30T10:53:13;26.40;43.60
65826;DHT22;52586;-43.152;172.732;2024-01-30T10:55:44;26.40;43.70
65826;DHT22;52586;-43.152;172.732;2024-01-30T10:58:18;26.30;43.60
65826;DHT22;52586;-43.152;172.732;2024-01-30T11:00:50;26.30;43.60
65826;DHT22;52586;-43.152;172.732;2024-01-30T11:03:21;26.30;43.60
65826;DHT22;52586;-43.152;172.732;2024-01-30T11:05:53;26.30;43.60
65826;DHT22;52586;-43.152;172.732;2024-01-30T11:08:33;26.20;43.50
65826;DHT22;52586;-43.152;172.732;2024-01-30T11:11:12;26.20;43.50
65826;DHT22;52586;-43.152;172.732;2024-01-30T11:14:25;26.20;43.50
65826;DHT22;52586;-43.152;172.732;2024-01-30T11:16:59;26.20;43.60
65826;DHT22;52586;-43.152;172.732;2024-01-30T11:19:33;26.20;43.50
65826;DHT22;52586;-43.152;172.732;2024-01-30T11:22:04;26.10;43.60
65826;DHT22;52586;-43.152;172.732;2024-01-30T11:24:40;26.10;43.60
65826;DHT22;52586;-43.152;172.732;2024-01-30T11:27:11;26.10;43.60
65826;DHT22;52586;-43.152;172.732;2024-01-30T11:29:51;26.10;43.60
65826;DHT22;52586;-43.152;172.732;2024-01-30T11:32:24;26.10;43.60
65826;DHT22;52586;-43.152;172.732;2024-01-30T11:34:55;26.10;43.60
65826;DHT22;52586;-43.152;172.732;2024-01-30T11:37:26;26.10;43.60
65826;DHT22;52586;-43.152;172.732;2024-01-30T11:39:57;26.10;43.60
65826;DHT22;52586;-43.152;172.732;2024-01-30T11:42:30;26.10;43.60
65826;DHT22;52586;-43.152;172.732;2024-01-30T11:45:04;26.00;44.10
65826;DHT22;52586;-43.152;172.732;2024-01-30T11:47:36;26.00;43.50
65826;DHT22;52586;-43.152;172.732;2024-01-30T11:50:07;26.00;43.50
65826;DHT22;52586;-43.152;172.732;2024-01-30T11:52:39;26.00;43.50
65826;DHT22;52586;-43.152;172.732;2024-01-30T11:55:11;26.00;43.50
65826;DHT22;52586;-43.152;172.732;2024-01-30T11:57:42;25.90;43.40
65826;DHT22;52586;-43.152;172.732;2024-01-30T12:00:19;25.90;43.40
65826;DHT22;52586;-43.152;172.732;2024-01-30T12:02:51;25.90;43.50
65826;DHT22;52586;-43.152;172.732;2024-01-30T12:05:23;25.90;43.50
65826;DHT22;52586;-43.152;172.732;2024-01-30T12:07:54;25.90;43.50
65826;DHT22;52586;-43.152;172.732;2024-01-30T12:10:26;25.80;43.50
65826;DHT22;52586;-43.152;172.732;2024-01-30T12:12:57;25.80;43.50
65826;DHT22;52586;-43.152;172.732;2024-01-30T12:15:30;25.80;43.50
65826;DHT22;52586;-43.152;172.732;2024-01-30T12:18:07;25.80;43.50
65826;DHT22;52586;-43.152;172.732;2024-01-30T12:20:38;25.80;43.50
65826;DHT22;52586;-43.152;172.732;2024-01-30T12:23:09;25.80;43.50
65826;DHT22;52586;-43.152;172.732;2024-01-30T12:25:42;25.80;43.50
65826;DHT22;52586;-43.152;172.732;2024-01-30T12:28:13;25.80;43.50
65826;DHT22;52586;-43.152;172.732;2024-01-30T12:30:45;25.70;43.50
65826;DHT22;52586;-43.152;172.732;2024-01-30T12:33:18;25.70;43.50
65826;DHT22;52586;-43.152;172.732;2024-01-30T12:35:49;25.70;43.50
65826;DHT22;52586;-43.152;172.732;2024-01-30T12:38:20;25.70;43.50
65826;DHT22;52586;-43.152;172.732;2024-01-30T12:40:54;25.70;43.50
65826;DHT22;52586;-43.152;172.732;2024-01-30T12:43:26;25.70;43.50
65826;DHT22;52586;-43.152;172.732;2024-01-30T12:45:59;25.70;43.50
65826;DHT22;52586;-43.152;172.732;2024-01-30T12:48:30;25.60;43.40
65826;DHT22;52586;-43.152;172.732;2024-01-30T12:51:00;25.60;43.50
65826;DHT22;52586;-43.152;172.732;2024-01-30T12:53:32;25.60;43.50
65826;DHT22;52586;-43.152;172.732;2024-01-30T12:56:02;25.50;43.50
65826;DHT22;52586;-43.152;172.732;2024-01-30T12:58:33;25.50;43.50
65826;DHT22;52586;-43.152;172.732;2024-01-30T13:01:06;25.50;43.50
65826;DHT22;52586;-43.152;172.732;2024-01-30T13:03:37;25.50;43.50
65826;DHT22;52586;-43.152;172.732;2024-01-30T13:06:07;25.50;43.50
65826;DHT22;52586;-43.152;172.732;2024-01-30T13:08:38;25.50;43.50
65826;DHT22;52586;-43.152;172.732;2024-01-30T13:11:09;25.50;43.50
65826;DHT22;52586;-43.152;172.732;2024-01-30T13:13:40;25.50;43.50
65826;DHT22;52586;-43.152;172.732;2024-01-30T13:16:12;25.50;43.50
65826;DHT22;52586;-43.152;172.732;2024-01-30T13:18:43;25.50;43.50
65826;DHT22;52586;-43.152;172.732;2024-01-30T13:21:14;25.40;43.50
65826;DHT22;52586;-43.152;172.732;2024-01-30T13:23:44;25.40;43.50
65826;DHT22;52586;-43.152;172.732;2024-01-30T13:26:15;25.40;43.50
65826;DHT22;52586;-43.152;172.732;2024-01-30T13:28:46;25.40;43.50
65826;DHT22;52586;-43.152;172.732;2024-01-30T13:31:18;25.40;43.50
65826;DHT22;52586;-43.152;172.732;2024-01-30T13:33:49;25.40;44.10
65826;DHT22;52586;-43.152;172.732;2024-01-30T13:36:20;25.40;43.50
65826;DHT22;52586;-43.152;172.732;2024-01-30T13:38:51;25.30;43.50
65826;DHT22;52586;-43.152;172.732;2024-01-30T13:41:22;25.30;43.50
65826;DHT22;52586;-43.152;172.732;2024-01-30T13:43:52;25.30;43.50
65826;DHT22;52586;-43.152;172.732;2024-01-30T13:46:25;25.30;43.50
65826;DHT22;52586;-43.152;172.732;2024-01-30T13:48:56;25.30;43.60
65826;DHT22;52586;-43.152;172.732;2024-01-30T13:51:27;25.30;43.60
65826;DHT22;52586;-43.152;172.732;2024-01-30T13:53:57;25.30;43.60
65826;DHT22;52586;-43.152;172.732;2024-01-30T13:56:28;25.20;43.50
65826;DHT22;52586;-43.152;172.732;2024-01-30T13:58:59;25.20;43.60
65826;DHT22;52586;-43.152;172.732;2024-01-30T14:01:34;25.20;43.60
65826;DHT22;52586;-43.152;172.732;2024-01-30T14:04:05;25.20;43.60
65826;DHT22;52586;-43.152;172.732;2024-01-30T14:06:36;25.20;43.50
65826;DHT22;52586;-43.152;172.732;2024-01-30T14:09:07;25.20;44.10
65826;DHT22;52586;-43.152;172.732;2024-01-30T14:11:38;25.20;43.60
65826;DHT22;52586;-43.152;172.732;2024-01-30T14:14:09;25.10;43.50
65826;DHT22;52586;-43.152;172.732;2024-01-30T14:16:41;25.10;43.50
65826;DHT22;52586;-43.152;172.732;2024-01-30T14:19:12;25.10;43.50
65826;DHT22;52586;-43.152;172.732;2024-01-30T14:21:43;25.10;43.50
65826;DHT22;52586;-43.152;172.732;2024-01-30T14:24:14;25.10;43.50
65826;DHT22;52586;-43.152;172.732;2024-01-30T14:26:44;25.10;43.50
65826;DHT22;52586;-43.152;172.732;2024-01-30T14:29:15;25.10;43.50
65826;DHT22;52586;-43.152;172.732;2024-01-30T14:31:47;25.10;43.50
65826;DHT22;52586;-43.152;172.732;2024-01-30T14:34:18;25.10;43.60
65826;DHT22;52586;-43.152;172.732;2024-01-30T14:36:49;25.10;43.60
65826;DHT22;52586;-43.152;172.732;2024-01-30T14:39:20;25.00;43.60
65826;DHT22;52586;-43.152;172.732;2024-01-30T14:41:50;25.00;43.60
65826;DHT22;52586;-43.152;172.732;2024-01-30T14:44:21;25.00;43.60
65826;DHT22;52586;-43.152;172.732;2024-01-30T14:46:54;25.00;43.60
65826;DHT22;52586;-43.152;172.732;2024-01-30T14:49:25;25.00;43.60
65826;DHT22;52586;-43.152;172.732;2024-01-30T14:51:55;25.00;43.60
65826;DHT22;52586;-43.152;172.732;2024-01-30T14:54:26;25.00;43.60
65826;DHT22;52586;-43.152;172.732;2024-01-30T14:56:57;24.90;43.60
65826;DHT22;52586;-43.152;172.732;2024-01-30T14:59:28;24.90;43.60
65826;DHT22;52586;-43.152;172.732;2024-01-30T15:02:01;24.90;43.60
65826;DHT22;52586;-43.152;172.732;2024-01-30T15:04:32;24.90;43.60
65826;DHT22;52586;-43.152;172.732;2024-01-30T15:07:02;24.90;43.60
65826;DHT22;52586;-43.152;172.732;2024-01-30T15:09:33;24.90;43.60
65826;DHT22;52586;-43.152;172.732;2024-01-30T15:12:04;24.90;43.60
65826;DHT22;52586;-43.152;172.732;2024-01-30T15:14:35;24.90;43.60